Caete, Brazil
Current Conditions -  °F | °C
As of 8:00 AM on Sunday 25 Jan 2015 (Local Time) from SBCF Reporting Station
Scattered Clouds Scattered Clouds  
Wind Chill: 68°   Ceiling: Unl
Heat Index: 68°   Visibility: 6mi
Dew Point: 64°   Wind: 2mph
Humidity: 88%   Direction: 170°S
Pressure: 30.09"   Gusts: NA
Location:  19.88°S, 43.68°W
Report Text: SBCF 251000Z 17002KT 9999 FEW030 SCT100 20/18 Q1019
Loading
Personal Weather Stations






























Interactive Weather Map New forecast layout! Learn more

10-Day Weather Forecast

Advertisements
Track Severe Weather on mobile